Time;durP1;ratioP1;P1;durP2;ratioP2;P2;SDS_P1;SDS_P2;PMS_P1;PMS_P2;Temp;Humidity;BMP_temperature;BMP_pressure;BME280_temperature;BME280_humidity;BME280_pressure;Samples;Min_cycle;Max_cycle;Signal;HPM_P1;HPM_P2
2022/03/08 00:00:10;;;;;;;2.72;1.73;;;;;;;2.41;61.70;102477.75;5054596;27;96807;-35
2022/03/08 00:02:35;;;;;;;4.22;2.83;;;;;;;2.32;61.29;102461.72;5036279;27;101662;-36
2022/03/08 00:05:01;;;;;;;1.58;1.30;;;;;;;2.39;61.73;102478.66;5054895;27;99546;-36
2022/03/08 00:07:28;;;;;;;1.23;1.13;;;;;;;2.32;60.85;102473.28;5054042;27;120703;-35
2022/03/08 00:09:53;;;;;;;2.60;1.92;;;;;;;2.30;61.61;102480.44;5036054;27;96913;-35
2022/03/08 00:12:18;;;;;;;1.27;1.05;;;;;;;2.25;61.67;102465.28;5054109;27;97978;-35
2022/03/08 00:14:43;;;;;;;3.15;1.75;;;;;;;2.23;61.88;102465.28;5053830;27;118453;-36
2022/03/08 00:17:09;;;;;;;3.50;1.92;;;;;;;2.25;62.01;102470.63;5053361;27;121909;-35
2022/03/08 00:19:34;;;;;;;3.22;2.00;;;;;;;2.22;61.71;102460.84;5054429;27;96852;-35
2022/03/08 00:22:00;;;;;;;2.55;1.35;;;;;;;2.21;61.28;102456.38;5054135;27;99303;-35
2022/03/08 00:24:25;;;;;;;2.20;1.85;;;;;;;2.14;61.85;102441.22;5054203;27;99315;-35
2022/03/08 00:26:50;;;;;;;1.52;1.42;;;;;;;2.18;61.39;102456.38;5053687;27;119002;-36
2022/03/08 00:29:16;;;;;;;2.17;1.35;;;;;;;2.15;61.57;102461.75;5054705;27;98530;-35
2022/03/08 00:31:41;;;;;;;1.70;1.25;;;;;;;2.05;62.01;102455.50;5054102;27;102448;-35
2022/03/08 00:34:06;;;;;;;2.25;1.50;;;;;;;2.07;61.88;102463.50;5054008;27;97266;-36
2022/03/08 00:36:32;;;;;;;1.88;0.68;;;;;;;2.04;61.38;102450.16;5053744;27;98800;-35
2022/03/08 00:38:58;;;;;;;1.35;1.23;;;;;;;2.08;61.20;102458.16;5035718;27;97341;-36
2022/03/08 00:41:24;;;;;;;2.65;2.22;;;;;;;2.01;61.58;102448.38;5054190;27;97853;-35
2022/03/08 00:43:50;;;;;;;2.63;1.35;;;;;;;2.01;61.40;102447.50;5035483;27;101506;-36
2022/03/08 00:46:16;;;;;;;4.25;2.03;;;;;;;2.02;61.68;102447.47;5035579;27;96652;-35
2022/03/08 00:48:42;;;;;;;3.35;2.17;;;;;;;2.02;61.58;102439.44;5053890;27;96824;-36
2022/03/08 00:51:08;;;;;;;2.42;1.50;;;;;;;2.00;61.85;102437.66;5034863;27;101154;-35
2022/03/08 00:53:45;;;;;;;3.40;1.92;;;;;;;2.00;61.94;102441.25;5035776;27;99145;-35
2022/03/08 00:56:11;;;;;;;1.50;0.82;;;;;;;1.95;61.74;102431.44;5054187;27;96647;-36
2022/03/08 00:58:36;;;;;;;0.98;0.93;;;;;;;1.94;61.67;102427.00;5053258;27;109376;-36
2022/03/08 01:01:02;;;;;;;1.38;1.10;;;;;;;1.95;62.02;102436.78;5053038;27;97859;-36
2022/03/08 01:03:28;;;;;;;4.45;1.23;;;;;;;1.96;61.73;102435.91;5035387;27;100763;-36
2022/03/08 01:05:53;;;;;;;1.50;1.35;;;;;;;1.85;61.58;102422.53;5053847;27;96540;-35
2022/03/08 01:08:18;;;;;;;3.80;1.08;;;;;;;1.85;61.96;102433.22;5053393;27;100933;-35
2022/03/08 01:10:44;;;;;;;2.22;0.85;;;;;;;1.80;61.97;102430.56;5053580;27;98031;-35
2022/03/08 01:13:09;;;;;;;0.82;0.80;;;;;;;1.80;62.39;102443.03;5053409;27;97901;-36
2022/03/08 01:15:35;;;;;;;0.95;0.77;;;;;;;1.78;61.97;102437.66;5053389;27;96618;-36
2022/03/08 01:18:00;;;;;;;1.27;1.00;;;;;;;1.79;62.16;102441.22;5054171;27;99052;-36
2022/03/08 01:20:26;;;;;;;0.88;0.75;;;;;;;1.70;62.00;102435.00;5053141;27;99040;-35
2022/03/08 01:22:53;;;;;;;0.40;0.35;;;;;;;1.62;62.29;102431.44;5034965;27;100693;-35
2022/03/08 01:25:22;;;;;;;1.58;1.30;;;;;;;1.56;62.01;102414.53;5034682;27;96562;-35
2022/03/08 01:27:49;;;;;;;1.08;0.93;;;;;;;1.58;62.51;102410.06;5034761;27;96777;-35
2022/03/08 01:30:17;;;;;;;1.85;1.17;;;;;;;1.59;62.37;102410.06;5034889;27;101253;-36
2022/03/08 01:32:43;;;;;;;2.88;0.82;;;;;;;1.57;62.34;102419.84;5034629;27;101049;-36
2022/03/08 01:35:09;;;;;;;1.10;0.98;;;;;;;1.53;62.37;102415.41;5053290;27;96784;-35
2022/03/08 01:37:35;;;;;;;2.00;1.25;;;;;;;1.58;62.48;102416.31;5034961;27;96920;-35
2022/03/08 01:40:00;;;;;;;0.82;0.32;;;;;;;1.51;62.10;102414.50;5053036;27;97881;-35
2022/03/08 01:42:26;;;;;;;1.55;1.42;;;;;;;1.55;62.27;102424.31;5053459;27;97876;-36
2022/03/08 01:44:52;;;;;;;1.55;1.30;;;;;;;1.50;62.15;102436.75;5053706;27;96655;-36
2022/03/08 01:47:20;;;;;;;2.97;1.20;;;;;;;1.46;62.03;102432.31;5034844;27;96610;-35
2022/03/08 01:49:47;;;;;;;0.40;0.40;;;;;;;1.43;62.29;102430.53;5052486;27;98088;-36
2022/03/08 01:52:13;;;;;;;0.63;0.60;;;;;;;1.39;62.30;102415.38;5034686;27;100555;-36
2022/03/08 01:54:38;;;;;;;1.13;1.00;;;;;;;1.38;62.34;102408.28;5053198;27;96441;-35
2022/03/08 01:57:05;;;;;;;1.92;1.15;;;;;;;1.43;62.26;102413.59;5052885;27;96937;-36
2022/03/08 01:59:31;;;;;;;0.20;0.20;;;;;;;1.39;62.12;102422.50;5052785;27;98211;-35
2022/03/08 02:01:56;;;;;;;1.27;0.80;;;;;;;1.36;61.98;102412.72;5033996;27;101162;-36
2022/03/08 02:04:22;;;;;;;0.73;0.30;;;;;;;1.34;61.49;102397.59;5052943;27;96663;-36
2022/03/08 02:06:47;;;;;;;0.93;0.60;;;;;;;1.31;61.93;102406.50;5053566;27;96744;-35
2022/03/08 02:09:13;;;;;;;3.28;1.60;;;;;;;1.27;62.20;102376.22;5038312;27;97808;-35
2022/03/08 02:11:39;;;;;;;1.13;0.85;;;;;;;1.43;62.28;102394.91;5032105;28;97807;-35
2022/03/08 02:14:05;;;;;;;1.90;0.65;;;;;;;1.38;62.34;102380.66;5013776;28;96934;-36
2022/03/08 02:16:30;;;;;;;0.88;0.60;;;;;;;1.34;62.22;102389.59;5032288;28;96855;-35
2022/03/08 02:18:56;;;;;;;0.77;0.45;;;;;;;1.23;61.66;102363.75;5032118;28;97570;-36
2022/03/08 02:21:21;;;;;;;1.08;0.68;;;;;;;1.28;61.64;102369.09;5031861;28;111297;-36
2022/03/08 02:23:47;;;;;;;2.13;1.80;;;;;;;1.30;61.28;102363.75;5032382;28;96624;-36
2022/03/08 02:26:12;;;;;;;1.30;1.00;;;;;;;1.24;61.56;102351.28;5032451;28;97489;-35
2022/03/08 02:28:39;;;;;;;0.70;0.70;;;;;;;1.24;61.30;102362.88;5032229;28;98039;-36
2022/03/08 02:31:05;;;;;;;0.47;0.43;;;;;;;1.22;61.26;102350.41;5014123;28;101199;-36
2022/03/08 02:33:30;;;;;;;1.23;0.55;;;;;;;1.25;61.24;102353.09;5032188;28;96819;-35
2022/03/08 02:35:55;;;;;;;1.98;0.75;;;;;;;1.25;61.38;102359.31;5032301;28;96790;-36
2022/03/08 02:38:21;;;;;;;0.70;0.47;;;;;;;1.20;60.81;102349.53;5031466;28;97954;-36
2022/03/08 02:40:46;;;;;;;1.08;0.98;;;;;;;1.10;61.19;102340.63;5031993;28;97878;-36
2022/03/08 02:43:12;;;;;;;2.78;1.15;;;;;;;1.12;61.18;102343.25;5032174;28;96601;-36
2022/03/08 02:45:38;;;;;;;0.80;0.65;;;;;;;1.13;61.20;102345.06;5032259;28;96708;-35
2022/03/08 02:48:04;;;;;;;1.30;0.93;;;;;;;1.20;61.28;102353.06;5013671;28;100817;-36
2022/03/08 02:50:30;;;;;;;1.65;0.82;;;;;;;1.17;61.08;102337.06;5013538;28;101292;-35
2022/03/08 02:52:56;;;;;;;1.92;1.35;;;;;;;1.19;60.94;102345.97;5031871;28;96453;-35
2022/03/08 02:55:24;;;;;;;0.52;0.38;;;;;;;1.21;60.79;102354.84;5013892;28;97688;-36
2022/03/08 02:57:52;;;;;;;0.00;0.00;;;;;;;1.15;60.45;102340.63;5013483;28;100843;-35
2022/03/08 03:00:19;;;;;;;1.23;0.77;;;;;;;1.17;60.68;102336.16;5012923;28;101309;-36
2022/03/08 03:02:45;;;;;;;0.90;0.85;;;;;;;1.13;60.42;102323.72;5013109;28;97373;-36
2022/03/08 03:05:11;;;;;;;2.72;1.25;;;;;;;1.10;60.57;102323.69;5013556;28;96891;-36
2022/03/08 03:07:37;;;;;;;0.13;0.13;;;;;;;1.13;60.54;102331.72;5013585;27;101460;-35
2022/03/08 03:10:05;;;;;;;0.10;0.08;;;;;;;1.05;60.41;102313.03;5033486;27;101034;-35
2022/03/08 03:12:31;;;;;;;0.10;0.10;;;;;;;1.15;60.44;102327.28;5033964;27;96634;-36
2022/03/08 03:14:56;;;;;;;1.15;0.40;;;;;;;1.04;60.14;102303.25;5053281;27;96829;-36
2022/03/08 03:17:22;;;;;;;0.05;0.05;;;;;;;1.14;59.73;102322.81;5055431;27;101185;-36
2022/03/08 03:19:48;;;;;;;1.58;1.02;;;;;;;1.16;60.19;102321.03;5037203;27;100255;-36
2022/03/08 03:22:13;;;;;;;0.80;0.65;;;;;;;1.12;59.55;102320.16;5055621;27;96481;-35
2022/03/08 03:24:38;;;;;;;0.93;0.57;;;;;;;1.16;59.85;102313.91;5054804;27;110846;-35
2022/03/08 03:27:04;;;;;;;2.47;0.60;;;;;;;1.08;59.75;102302.38;5054765;27;97848;-35
2022/03/08 03:29:29;;;;;;;1.30;0.93;;;;;;;1.06;59.89;102301.47;5055291;27;97821;-36
2022/03/08 03:31:55;;;;;;;0.38;0.38;;;;;;;1.11;59.65;102309.47;5037003;27;96609;-36
2022/03/08 03:34:20;;;;;;;0.30;0.30;;;;;;;1.05;59.70;102310.38;5055127;27;96762;-36
2022/03/08 03:36:54;;;;;;;4.88;0.88;;;;;;;1.01;59.71;102290.78;5055457;27;97351;-36
2022/03/08 03:39:20;;;;;;;1.60;1.23;;;;;;;1.08;59.64;102299.69;5054461;27;121407;-35
2022/03/08 03:41:45;;;;;;;1.45;0.85;;;;;;;1.09;59.80;102296.13;5054389;27;118412;-35
2022/03/08 03:44:11;;;;;;;4.40;1.88;;;;;;;1.07;59.83;102297.91;5054889;27;111499;-35
2022/03/08 03:46:36;;;;;;;0.60;0.55;;;;;;;1.08;60.08;102301.47;5054814;27;99523;-35
2022/03/08 03:49:02;;;;;;;1.10;0.68;;;;;;;1.05;59.89;102297.03;5054948;27;97910;-35
2022/03/08 03:51:28;;;;;;;4.88;1.50;;;;;;;1.09;60.03;102300.56;5036044;27;96790;-36
2022/03/08 03:53:53;;;;;;;0.50;0.50;;;;;;;1.06;60.12;102296.13;5036499;27;97211;-36
2022/03/08 03:56:19;;;;;;;1.88;1.33;;;;;;;1.00;60.58;102286.34;5054983;27;97358;-35
2022/03/08 03:58:44;;;;;;;0.32;0.32;;;;;;;0.98;60.36;102276.56;5036231;27;99960;-36
2022/03/08 04:01:09;;;;;;;2.60;1.20;;;;;;;0.99;60.47;102284.56;5053944;27;116802;-35
2022/03/08 04:03:35;;;;;;;0.73;0.63;;;;;;;0.97;60.32;102286.31;5055309;27;96897;-36
2022/03/08 04:06:00;;;;;;;1.33;0.80;;;;;;;0.99;60.08;102297.88;5054555;27;97842;-35
2022/03/08 04:08:26;;;;;;;1.00;0.68;;;;;;;0.92;59.92;102282.75;5054372;27;99167;-36
2022/03/08 04:10:51;;;;;;;0.17;0.17;;;;;;;0.92;60.17;102277.44;5054711;27;96573;-35
2022/03/08 04:13:17;;;;;;;0.30;0.30;;;;;;;0.98;60.29;102292.56;5054646;27;96813;-36
2022/03/08 04:15:44;;;;;;;0.63;0.35;;;;;;;0.97;60.28;102293.44;5035708;27;100664;-36
2022/03/08 04:18:09;;;;;;;1.08;0.60;;;;;;;0.81;60.10;102269.44;5036069;27;100722;-36
2022/03/08 04:20:35;;;;;;;0.28;0.28;;;;;;;0.89;60.13;102287.22;5054562;27;96676;-36
2022/03/08 04:23:00;;;;;;;0.60;0.52;;;;;;;0.91;59.96;102297.00;5054461;27;96744;-36
2022/03/08 04:25:25;;;;;;;1.88;0.40;;;;;;;0.91;60.01;102285.44;5036252;27;97912;-35
2022/03/08 04:27:51;;;;;;;1.60;0.88;;;;;;;0.89;59.70;102285.44;5034777;27;98910;-36
2022/03/08 04:30:16;;;;;;;1.30;1.20;;;;;;;0.89;60.08;102277.44;5036128;27;96602;-36
2022/03/08 04:32:41;;;;;;;2.03;1.17;;;;;;;0.93;60.04;102283.66;5054530;27;96745;-36
2022/03/08 04:35:07;;;;;;;1.05;0.93;;;;;;;0.90;60.20;102275.66;5035401;27;113110;-35
2022/03/08 04:37:33;;;;;;;1.20;1.10;;;;;;;0.81;59.89;102264.09;5054014;27;99831;-36
2022/03/08 04:39:59;;;;;;;0.65;0.50;;;;;;;0.84;60.23;102276.53;5053444;27;96581;-36
2022/03/08 04:42:24;;;;;;;3.63;1.98;;;;;;;0.81;59.81;102280.09;5054154;27;96763;-36
2022/03/08 04:44:50;;;;;;;1.40;0.80;;;;;;;0.71;60.14;102264.94;5035741;27;98927;-36
2022/03/08 04:47:15;;;;;;;1.40;0.90;;;;;;;0.79;60.39;102270.31;5035592;27;101100;-36
2022/03/08 04:49:40;;;;;;;0.32;0.32;;;;;;;0.77;60.18;102272.97;5053661;27;105826;-36
2022/03/08 04:52:06;;;;;;;1.08;0.60;;;;;;;0.78;60.21;102273.84;5053954;27;96891;-36
2022/03/08 04:54:31;;;;;;;0.70;0.35;;;;;;;0.73;60.48;102268.50;5053877;27;98023;-35
2022/03/08 04:56:57;;;;;;;0.25;0.25;;;;;;;0.74;60.45;102272.97;5054066;27;104086;-35
2022/03/08 04:59:22;;;;;;;1.45;0.88;;;;;;;0.73;60.37;102270.28;5054272;27;96619;-36
2022/03/08 05:01:49;;;;;;;0.22;0.17;;;;;;;0.74;60.26;102267.63;5053823;27;96713;-36
2022/03/08 05:04:15;;;;;;;0.98;0.80;;;;;;;0.75;60.54;102263.19;5034789;27;101239;-36
2022/03/08 05:06:40;;;;;;;1.20;0.93;;;;;;;0.66;60.39;102253.38;5035168;27;101324;-36
2022/03/08 05:09:06;;;;;;;1.23;0.60;;;;;;;0.64;60.60;102260.47;5034903;27;96783;-36
2022/03/08 05:11:31;;;;;;;0.45;0.20;;;;;;;0.68;60.53;102278.28;5053539;27;96876;-35
2022/03/08 05:13:56;;;;;;;1.17;0.75;;;;;;;0.64;60.53;102265.81;5053755;27;97862;-36
2022/03/08 05:16:22;;;;;;;0.45;0.43;;;;;;;0.63;60.53;102261.38;5053349;27;98876;-36
2022/03/08 05:18:47;;;;;;;0.22;0.15;;;;;;;0.65;60.27;102272.94;5052631;27;120872;-36
2022/03/08 05:21:12;;;;;;;0.20;0.20;;;;;;;0.62;60.38;102260.50;5052919;27;118809;-36
2022/03/08 05:23:37;;;;;;;1.73;1.40;;;;;;;0.70;60.44;102267.63;5053046;27;111297;-36
2022/03/08 05:26:04;;;;;;;7.35;3.10;;;;;;;0.65;60.35;102256.94;5053423;27;97763;-36
2022/03/08 05:28:31;;;;;;;2.83;2.38;;;;;;;0.66;60.60;102256.03;5034576;27;96886;-36
2022/03/08 05:30:56;;;;;;;4.22;1.42;;;;;;;0.65;60.57;102262.28;5053721;27;97137;-36
2022/03/08 05:33:21;;;;;;;1.85;1.55;;;;;;;0.65;60.17;102246.28;5052538;27;119401;-36
2022/03/08 05:35:48;;;;;;;1.42;1.08;;;;;;;0.62;60.72;102252.50;5052915;27;99204;-36
2022/03/08 05:38:13;;;;;;;4.28;1.98;;;;;;;0.62;60.98;102259.59;5034625;27;96666;-36
2022/03/08 05:40:39;;;;;;;1.58;1.08;;;;;;;0.56;61.11;102247.13;5053072;27;96465;-36
2022/03/08 05:43:05;;;;;;;1.25;1.15;;;;;;;0.58;60.76;102257.81;5053256;27;97971;-35
2022/03/08 05:45:30;;;;;;;4.75;0.40;;;;;;;0.49;60.80;102242.69;5053391;27;97999;-36
2022/03/08 05:47:55;;;;;;;0.82;0.75;;;;;;;0.54;61.02;102243.56;5052658;27;109039;-35
2022/03/08 05:50:20;;;;;;;0.38;0.32;;;;;;;0.47;61.27;102230.22;5052728;27;98009;-36
2022/03/08 05:52:46;;;;;;;1.55;0.93;;;;;;;0.50;61.39;102238.22;5052672;27;102490;-36
2022/03/08 05:55:20;;;;;;;1.08;0.70;;;;;;;0.48;61.02;102238.25;5052906;27;100681;-36
2022/03/08 05:57:45;;;;;;;1.42;1.25;;;;;;;0.50;61.04;102235.56;5053141;27;96577;-35
2022/03/08 06:00:13;;;;;;;0.70;0.70;;;;;;;0.51;61.31;102243.56;5053072;27;96753;-36
2022/03/08 06:03:03;;;;;;;1.17;0.93;;;;;;;0.47;61.13;102246.22;5034283;27;100878;-36
2022/03/08 06:05:28;;;;;;;0.82;0.77;;;;;;;0.47;61.44;102238.22;5052965;27;97916;-36
2022/03/08 06:07:53;;;;;;;0.15;0.15;;;;;;;0.41;61.78;102244.44;5033109;27;122045;-36
2022/03/08 06:10:19;;;;;;;0.40;0.20;;;;;;;0.34;61.12;102230.22;5052617;27;116061;-35
2022/03/08 06:12:44;;;;;;;0.80;0.47;;;;;;;0.37;61.28;102224.88;5052474;27;99225;-35
2022/03/08 06:15:10;;;;;;;0.90;0.77;;;;;;;0.45;61.49;102226.66;5052648;27;97658;-36
2022/03/08 06:17:35;;;;;;;0.17;0.15;;;;;;;0.41;61.39;102236.44;5033816;27;96595;-36
2022/03/08 06:20:00;;;;;;;0.57;0.57;;;;;;;0.38;61.84;102233.75;5034177;27;96848;-36
2022/03/08 06:22:26;;;;;;;0.28;0.13;;;;;;;0.37;61.66;102224.88;5052372;27;99342;-36
2022/03/08 06:24:51;;;;;;;1.42;0.17;;;;;;;0.44;61.61;102246.22;5052501;27;97836;-36
2022/03/08 06:27:16;;;;;;;0.50;0.40;;;;;;;0.38;61.30;102234.66;5034395;27;96530;-36
2022/03/08 06:29:42;;;;;;;0.57;0.52;;;;;;;0.39;61.80;102235.56;5052011;27;104855;-36
2022/03/08 06:32:07;;;;;;;0.30;0.30;;;;;;;0.47;61.48;102235.56;5052338;27;97741;-36
2022/03/08 06:34:33;;;;;;;0.52;0.40;;;;;;;0.39;61.80;102236.44;5052530;27;97764;-36
2022/03/08 06:36:58;;;;;;;0.82;0.80;;;;;;;0.49;61.45;102241.78;5051837;27;115407;-36
2022/03/08 06:39:23;;;;;;;0.47;0.47;;;;;;;0.56;61.33;102255.13;5051818;27;112629;-36
2022/03/08 06:41:48;;;;;;;1.88;1.67;;;;;;;0.56;61.76;102260.47;5051819;27;97972;-36
2022/03/08 06:44:14;;;;;;;2.08;0.93;;;;;;;0.53;61.15;102259.59;5052377;27;98284;-36
2022/03/08 06:46:44;;;;;;;0.70;0.70;;;;;;;0.53;61.54;102254.25;5052180;27;96606;-36
2022/03/08 06:49:12;;;;;;;1.27;0.93;;;;;;;0.50;61.18;102255.13;5034074;27;96878;-36
2022/03/08 06:51:37;;;;;;;0.32;0.32;;;;;;;0.40;61.39;102248.88;5037502;27;101036;-36
2022/03/08 06:54:05;;;;;;;1.40;0.77;;;;;;;0.48;61.68;102259.56;5055502;27;108553;-36
2022/03/08 06:56:31;;;;;;;1.25;0.85;;;;;;;0.55;61.23;102257.78;5037580;27;96459;-36
2022/03/08 06:58:56;;;;;;;2.08;0.93;;;;;;;0.57;61.41;102272.00;5037803;27;96633;-36
2022/03/08 07:01:21;;;;;;;0.75;0.68;;;;;;;0.57;61.55;102267.59;5055557;27;97655;-36
2022/03/08 07:03:46;;;;;;;1.45;0.73;;;;;;;0.54;61.43;102262.25;5056123;27;97434;-36
2022/03/08 07:06:12;;;;;;;0.85;0.68;;;;;;;0.59;61.76;102254.25;5054522;27;120899;-36
2022/03/08 07:08:37;;;;;;;4.75;2.60;;;;;;;0.54;61.23;102234.69;5055159;27;96907;-35
2022/03/08 07:11:04;;;;;;;2.13;1.63;;;;;;;0.61;61.57;102233.81;5055598;27;98090;-36
2022/03/08 07:13:30;;;;;;;14.18;6.45;;;;;;;0.59;61.23;102225.81;5037123;27;100963;-36
2022/03/08 07:15:55;;;;;;;5.43;2.42;;;;;;;0.71;61.44;102238.28;5037163;27;96502;-36
2022/03/08 07:18:20;;;;;;;1.75;1.63;;;;;;;0.79;60.74;102255.19;5054717;27;120022;-36
2022/03/08 07:20:45;;;;;;;0.57;0.57;;;;;;;0.81;60.81;102253.44;5055387;27;97832;-36
2022/03/08 07:23:11;;;;;;;2.80;1.50;;;;;;;0.90;60.71;102251.63;5055173;27;120774;-36
2022/03/08 07:25:36;;;;;;;0.90;0.60;;;;;;;1.01;60.68;102258.78;5054868;27;118100;-36
2022/03/08 07:28:01;;;;;;;0.03;0.00;;;;;;;1.07;60.35;102247.19;5055583;27;96812;-35
2022/03/08 07:30:27;;;;;;;0.35;0.35;;;;;;;1.17;60.13;102245.41;5054486;27;99478;-36
2022/03/08 07:32:52;;;;;;;1.58;1.30;;;;;;;1.34;60.19;102254.34;5054146;27;124493;-36
2022/03/08 07:35:18;;;;;;;1.27;0.30;;;;;;;1.42;59.78;102240.97;5055154;27;96582;-36
2022/03/08 07:37:43;;;;;;;0.17;0.10;;;;;;;1.55;59.47;102242.75;5055226;27;96866;-36
2022/03/08 07:40:09;;;;;;;0.55;0.40;;;;;;;1.70;59.18;102249.81;5036374;27;105170;-36
2022/03/08 07:42:34;;;;;;;0.40;0.35;;;;;;;1.82;59.03;102241.78;5054774;27;97833;-35
2022/03/08 07:45:00;;;;;;;0.82;0.60;;;;;;;1.92;58.73;102238.16;5055257;27;96764;-36
2022/03/08 07:47:25;;;;;;;1.02;0.85;;;;;;;2.11;58.80;102249.69;5054749;27;118623;-36
2022/03/08 07:49:50;;;;;;;0.38;0.38;;;;;;;2.25;58.53;102257.66;5055014;27;97848;-36
2022/03/08 07:52:16;;;;;;;1.48;1.20;;;;;;;2.32;58.17;102247.81;5035956;27;116114;-36
2022/03/08 07:54:41;;;;;;;2.58;1.10;;;;;;;2.44;57.96;102246.88;5054586;27;96700;-36
2022/03/08 07:57:12;;;;;;;1.20;0.90;;;;;;;2.53;57.56;102244.16;5054533;27;111965;-36
2022/03/08 07:59:37;;;;;;;0.70;0.70;;;;;;;2.67;57.06;102254.75;5053581;27;123792;-36
2022/03/08 08:02:03;;;;;;;0.47;0.43;;;;;;;2.73;57.36;102247.59;5053527;27;120076;-36
2022/03/08 08:04:29;;;;;;;1.10;0.88;;;;;;;2.83;57.15;102258.22;5054817;27;96579;-36
2022/03/08 08:06:54;;;;;;;1.42;1.00;;;;;;;2.93;56.86;102257.25;5054931;27;96747;-36
2022/03/08 08:09:20;;;;;;;0.50;0.50;;;;;;;3.02;56.56;102267.03;5039266;27;98407;-36
2022/03/08 08:11:45;;;;;;;1.02;0.70;;;;;;;2.96;56.25;102255.47;5033774;28;125532;-35
2022/03/08 08:14:10;;;;;;;2.00;0.85;;;;;;;3.10;56.48;102266.06;5034246;28;96685;-36
2022/03/08 08:16:36;;;;;;;0.10;0.10;;;;;;;3.25;55.73;102274.88;5033485;28;121813;-35
2022/03/08 08:19:01;;;;;;;0.60;0.57;;;;;;;3.34;55.72;102274.81;5032947;28;122281;-35
2022/03/08 08:21:27;;;;;;;0.93;0.80;;;;;;;3.44;55.36;102265.78;5034050;28;97784;-35
2022/03/08 08:23:52;;;;;;;0.52;0.40;;;;;;;3.37;54.33;102256.03;5034316;28;96539;-36
2022/03/08 08:26:18;;;;;;;2.65;1.17;;;;;;;3.45;54.67;102264.88;5033508;28;111285;-36
2022/03/08 08:28:43;;;;;;;3.15;0.82;;;;;;;3.55;54.06;102268.34;5033706;28;111111;-36
2022/03/08 08:31:09;;;;;;;0.45;0.45;;;;;;;3.53;54.05;102276.41;5034078;28;97670;-35
2022/03/08 08:33:34;;;;;;;0.63;0.63;;;;;;;3.49;53.73;102263.94;5034007;28;96713;-36
2022/03/08 08:36:00;;;;;;;1.35;0.90;;;;;;;3.48;53.95;102261.28;5015835;28;116588;-35
2022/03/08 08:38:25;;;;;;;1.50;1.00;;;;;;;3.52;53.77;102263.91;5015718;28;100565;-35
2022/03/08 08:40:51;;;;;;;0.47;0.43;;;;;;;3.53;54.34;102260.34;5033907;28;97873;-36
2022/03/08 08:43:16;;;;;;;0.80;0.75;;;;;;;3.58;54.57;102254.94;5033457;28;96748;-35
2022/03/08 08:45:41;;;;;;;1.58;0.22;;;;;;;3.69;53.33;102255.69;5033870;28;104559;-36
2022/03/08 08:48:08;;;;;;;0.70;0.38;;;;;;;3.63;52.96;102242.38;5033895;28;98104;-36
2022/03/08 08:50:34;;;;;;;0.35;0.30;;;;;;;3.59;52.34;102229.91;5033438;28;98873;-35
2022/03/08 08:53:00;;;;;;;0.20;0.20;;;;;;;3.63;52.76;102234.34;5015623;28;96800;-36
2022/03/08 08:55:26;;;;;;;0.65;0.52;;;;;;;3.65;52.27;102237.91;5033827;28;96781;-35
2022/03/08 08:57:51;;;;;;;0.95;0.73;;;;;;;3.70;52.49;102238.75;5015118;28;101223;-36
2022/03/08 09:00:17;;;;;;;0.98;0.60;;;;;;;3.65;52.41;102216.47;5033642;28;97521;-35
2022/03/08 09:02:43;;;;;;;1.27;0.85;;;;;;;3.76;52.33;102224.38;5033664;28;96486;-36
2022/03/08 09:05:09;;;;;;;1.35;0.60;;;;;;;3.78;52.19;102217.22;5033374;28;96774;-36
2022/03/08 09:07:35;;;;;;;0.38;0.38;;;;;;;3.85;52.60;102224.28;5014757;27;100643;-34
2022/03/08 09:10:00;;;;;;;2.75;0.98;;;;;;;3.93;51.59;102234.91;5018541;27;100706;-36
2022/03/08 09:12:25;;;;;;;0.82;0.47;;;;;;;3.87;51.41;102230.50;5053345;27;96685;-35
2022/03/08 09:14:51;;;;;;;1.77;1.10;;;;;;;3.95;51.80;102233.09;5053200;27;110811;-36
2022/03/08 09:17:16;;;;;;;1.35;0.85;;;;;;;4.02;52.13;102222.28;5053533;27;98701;-35
2022/03/08 09:19:41;;;;;;;3.78;1.83;;;;;;;4.11;50.99;102225.75;5053517;27;99526;-35
2022/03/08 09:22:07;;;;;;;1.38;0.93;;;;;;;4.23;51.14;102220.25;5053420;27;96626;-35
2022/03/08 09:24:35;;;;;;;1.30;0.85;;;;;;;4.25;51.10;102205.91;5054123;27;98741;-35
2022/03/08 09:27:01;;;;;;;1.20;1.00;;;;;;;4.39;51.57;102205.72;5053148;27;98077;-36
2022/03/08 09:29:26;;;;;;;0.32;0.32;;;;;;;4.49;50.45;102208.28;5053551;27;97797;-35
2022/03/08 09:31:52;;;;;;;0.63;0.63;;;;;;;4.60;50.65;102207.22;5034000;27;109555;-35
2022/03/08 09:34:18;;;;;;;0.43;0.43;;;;;;;4.68;50.78;102207.09;5053298;27;96724;-36
2022/03/08 09:36:43;;;;;;;0.65;0.60;;;;;;;4.85;50.79;102212.19;5053157;27;97378;-35
2022/03/08 09:39:08;;;;;;;1.73;1.40;;;;;;;4.95;50.44;102197.69;5052866;27;108412;-35
2022/03/08 09:41:34;;;;;;;3.17;1.58;;;;;;;5.01;49.58;102196.72;5053183;27;96643;-35
2022/03/08 09:44:00;;;;;;;1.67;0.88;;;;;;;5.31;50.45;102212.31;5053049;27;96808;-35
2022/03/08 09:46:25;;;;;;;5.13;1.63;;;;;;;5.51;49.40;102208.38;5034606;27;100599;-36
2022/03/08 09:48:51;;;;;;;0.95;0.70;;;;;;;5.68;47.90;102208.06;5053486;27;97925;-35
2022/03/08 09:51:17;;;;;;;1.85;0.95;;;;;;;5.71;47.19;102205.31;5053189;27;96658;-35
2022/03/08 09:53:44;;;;;;;2.78;0.85;;;;;;;5.89;47.98;102199.56;5034768;27;97115;-36
2022/03/08 09:56:10;;;;;;;2.47;1.30;;;;;;;6.21;48.25;102199.84;5033939;27;101011;-35
2022/03/08 09:58:36;;;;;;;2.35;1.25;;;;;;;6.58;46.60;102189.16;5052983;27;97733;-35
2022/03/08 10:01:04;;;;;;;2.67;1.25;;;;;;;6.76;46.65;102193.19;5034397;27;97293;-36
2022/03/08 10:03:35;;;;;;;1.00;0.85;;;;;;;6.80;45.23;102201.16;5052853;27;96799;-35
2022/03/08 10:06:01;;;;;;;3.05;2.05;;;;;;;7.06;45.31;102186.19;5052819;27;97894;-35
2022/03/08 10:08:27;;;;;;;1.58;1.30;;;;;;;7.32;44.36;102187.31;5033601;27;100836;-35
2022/03/08 10:11:00;;;;;;;0.95;0.40;;;;;;;7.40;42.21;102171.81;5052739;27;96604;-35
2022/03/08 10:13:30;;;;;;;1.52;1.15;;;;;;;7.38;42.22;102168.28;5053301;27;96618;-35
2022/03/08 10:16:09;;;;;;;1.48;1.00;;;;;;;7.77;42.26;102181.56;5034181;27;101465;-36
2022/03/08 10:18:38;;;;;;;2.95;2.22;;;;;;;7.93;42.54;102174.81;5034386;27;102307;-35
2022/03/08 10:21:09;;;;;;;1.73;1.10;;;;;;;8.10;41.32;102163.50;5033719;27;97032;-35
2022/03/08 10:23:41;;;;;;;4.40;1.83;;;;;;;8.22;42.02;102176.66;5052160;27;96615;-35
2022/03/08 10:26:10;;;;;;;4.32;1.83;;;;;;;8.37;42.77;102152.81;5033467;27;101343;-36
2022/03/08 10:28:48;;;;;;;2.17;1.48;;;;;;;8.51;40.86;102156.00;5033889;27;101347;-35
2022/03/08 10:31:16;;;;;;;2.53;1.80;;;;;;;8.69;41.12;102154.50;5034201;27;96613;-35
2022/03/08 10:33:44;;;;;;;5.03;2.47;;;;;;;9.01;40.43;102157.94;5033620;27;96867;-35
2022/03/08 10:36:20;;;;;;;3.65;2.08;;;;;;;9.19;38.31;102156.44;5033942;27;100859;-35
2022/03/08 10:39:15;;;;;;;6.05;2.40;;;;;;;8.96;38.97;102159.94;5034269;27;100744;-35
2022/03/08 10:41:53;;;;;;;2.30;1.45;;;;;;;9.01;38.00;102133.63;5030498;27;96929;-36
2022/03/08 10:44:53;;;;;;;4.88;2.22;;;;;;;9.23;38.57;102145.47;5033994;27;96786;-35
2022/03/08 10:47:19;;;;;;;3.50;1.98;;;;;;;9.44;39.25;102138.44;4979583;27;101462;-35
2022/03/08 10:50:03;;;;;;;4.32;1.63;;;;;;;9.46;38.29;102144.66;5017084;27;100560;-35
2022/03/08 10:52:33;;;;;;;3.05;1.77;;;;;;;9.43;37.93;102128.53;5033977;27;96770;-36
2022/03/08 10:55:13;;;;;;;4.50;1.92;;;;;;;9.77;38.84;102120.06;5034013;27;96737;-36
2022/03/08 10:57:43;;;;;;;4.60;2.08;;;;;;;9.96;37.68;102119.34;5033628;27;100872;-36
2022/03/08 11:00:14;;;;;;;1.73;1.30;;;;;;;9.95;36.43;102118.47;5052286;27;97881;-35
2022/03/08 11:02:46;;;;;;;4.18;1.77;;;;;;;10.17;37.85;102121.22;5052404;27;96507;-35
2022/03/08 11:05:11;;;;;;;2.40;1.35;;;;;;;10.48;36.13;102135.41;5034289;27;96763;-36
2022/03/08 11:07:37;;;;;;;2.38;1.48;;;;;;;10.60;36.01;102132.19;5051742;27;97457;-34
2022/03/08 11:10:09;;;;;;;1.48;1.00;;;;;;;10.35;35.36;102133.19;5033509;27;100806;-36
2022/03/08 11:12:36;;;;;;;3.55;1.73;;;;;;;10.38;35.89;102130.34;5033075;27;97510;-35
2022/03/08 11:15:02;;;;;;;4.05;1.55;;;;;;;10.51;35.85;102116.31;5033710;27;96843;-36
2022/03/08 11:17:28;;;;;;;4.82;1.95;;;;;;;10.70;37.32;102116.44;5051388;27;99455;-36
2022/03/08 11:19:56;;;;;;;3.05;1.48;;;;;;;10.85;35.73;102107.66;5033243;27;101206;-36
2022/03/08 11:22:22;;;;;;;3.42;1.67;;;;;;;10.71;34.96;102099.25;5033665;27;96832;-36
2022/03/08 11:24:55;;;;;;;3.08;1.92;;;;;;;10.99;36.61;102109.78;5033568;27;96892;-36